createdAt,value
2019-01-29T00:00:04.581Z,991.62
2019-01-29T00:01:04.569Z,991.64
2019-01-29T00:02:04.562Z,991.68
2019-01-29T00:03:04.550Z,991.64
2019-01-29T00:04:04.542Z,991.68
2019-01-29T00:05:04.531Z,991.65
2019-01-29T00:06:04.522Z,991.67
2019-01-29T00:07:04.595Z,991.68
2019-01-29T00:08:04.502Z,991.69
2019-01-29T00:09:04.492Z,991.66
2019-01-29T00:10:04.481Z,991.70
2019-01-29T00:11:04.466Z,991.67
2019-01-29T00:12:04.460Z,991.73
2019-01-29T00:13:04.450Z,991.74
2019-01-29T00:14:04.443Z,991.75
2019-01-29T00:15:04.430Z,991.72
2019-01-29T00:16:04.529Z,991.75
2019-01-29T00:17:04.412Z,991.74
2019-01-29T00:18:04.499Z,991.77
2019-01-29T00:19:04.390Z,991.73
2019-01-29T00:20:04.378Z,991.75
2019-01-29T00:21:04.372Z,991.79
2019-01-29T00:22:04.360Z,991.80
2019-01-29T00:23:04.349Z,991.79
2019-01-29T00:24:04.339Z,991.81
2019-01-29T00:25:04.327Z,991.82
2019-01-29T00:26:04.319Z,991.90
2019-01-29T00:27:04.311Z,991.86
2019-01-29T00:28:04.297Z,991.92
2019-01-29T00:29:04.290Z,991.94
2019-01-29T00:30:04.279Z,992.01
2019-01-29T00:31:04.267Z,991.98
2019-01-29T00:32:04.256Z,991.99
2019-01-29T00:33:04.248Z,992.05
2019-01-29T00:34:04.234Z,992.02
2019-01-29T00:35:04.228Z,992.05
2019-01-29T00:36:04.211Z,992.07
2019-01-29T00:37:04.205Z,992.06
2019-01-29T00:38:04.196Z,992.06
2019-01-29T00:39:04.184Z,992.10
2019-01-29T00:40:04.175Z,992.11
2019-01-29T00:41:04.169Z,992.11
2019-01-29T00:42:04.157Z,992.13
2019-01-29T00:43:04.142Z,992.14
2019-01-29T00:44:04.136Z,992.08
2019-01-29T00:45:04.124Z,992.17
2019-01-29T00:46:04.121Z,992.14
2019-01-29T00:47:04.103Z,992.16
2019-01-29T00:48:04.088Z,992.16
2019-01-29T00:49:04.083Z,992.18
2019-01-29T00:50:04.082Z,992.22
2019-01-29T00:51:04.061Z,992.24
2019-01-29T00:52:04.051Z,992.29
2019-01-29T00:53:04.039Z,992.29
2019-01-29T00:54:04.031Z,992.31
2019-01-29T00:55:04.020Z,992.33
2019-01-29T00:56:04.011Z,992.35
2019-01-29T00:57:03.999Z,992.38
2019-01-29T00:58:03.992Z,992.44
2019-01-29T00:59:03.980Z,992.44
2019-01-29T01:00:03.967Z,992.46
2019-01-29T01:01:03.959Z,992.46
2019-01-29T01:02:03.947Z,992.45
2019-01-29T01:03:03.935Z,992.46
2019-01-29T01:04:03.926Z,992.52
2019-01-29T01:05:03.917Z,992.52
2019-01-29T01:06:03.908Z,992.55
2019-01-29T01:07:03.895Z,992.55
2019-01-29T01:08:03.884Z,992.54
2019-01-29T01:09:03.888Z,992.56
2019-01-29T01:10:03.866Z,992.63
2019-01-29T01:11:03.851Z,992.62
2019-01-29T01:12:03.841Z,992.61
2019-01-29T01:13:03.832Z,992.65
2019-01-29T01:14:03.820Z,992.65
2019-01-29T01:15:03.811Z,992.67
2019-01-29T01:16:03.799Z,992.73
2019-01-29T01:17:03.789Z,992.73
2019-01-29T01:18:03.779Z,992.69
2019-01-29T01:19:03.776Z,992.70
2019-01-29T01:20:03.759Z,992.74
2019-01-29T01:21:03.746Z,992.73
2019-01-29T01:22:03.736Z,992.76
2019-01-29T01:23:03.726Z,992.78
2019-01-29T01:24:03.714Z,992.77
2019-01-29T01:25:03.703Z,992.83
2019-01-29T01:26:03.694Z,992.81
2019-01-29T01:27:03.684Z,992.85
2019-01-29T01:28:03.670Z,992.87
2019-01-29T01:29:03.662Z,992.90
2019-01-29T01:30:03.656Z,992.90
2019-01-29T01:31:03.644Z,992.86
2019-01-29T01:32:03.629Z,992.90
2019-01-29T01:33:03.621Z,992.82
2019-01-29T01:34:03.608Z,992.90
2019-01-29T01:35:03.597Z,992.96
2019-01-29T01:36:03.596Z,992.92
2019-01-29T01:37:03.575Z,992.95
2019-01-29T01:38:03.565Z,992.96
2019-01-29T01:39:03.558Z,992.99
2019-01-29T01:40:03.544Z,992.98
2019-01-29T01:41:03.533Z,992.99
2019-01-29T01:42:03.528Z,993.00
2019-01-29T01:43:03.511Z,993.02
2019-01-29T01:44:03.500Z,993.05
2019-01-29T01:45:03.492Z,993.03
2019-01-29T01:46:03.480Z,993.02
2019-01-29T01:47:03.469Z,993.08
2019-01-29T01:48:03.460Z,993.05
2019-01-29T01:49:03.446Z,993.12
2019-01-29T01:50:03.438Z,993.14
2019-01-29T01:51:03.429Z,993.23
2019-01-29T01:52:03.417Z,993.20
2019-01-29T01:53:03.404Z,993.24
2019-01-29T01:54:03.396Z,993.25
2019-01-29T01:55:03.378Z,993.29
2019-01-29T01:56:03.368Z,993.31
2019-01-29T01:57:03.360Z,993.38
2019-01-29T01:58:03.352Z,993.40
2019-01-29T01:59:03.340Z,993.33
2019-01-29T02:00:03.328Z,993.37
2019-01-29T02:01:03.316Z,993.40
2019-01-29T02:02:03.326Z,993.43
2019-01-29T02:03:03.291Z,993.36
2019-01-29T02:04:03.288Z,993.56
2019-01-29T02:05:03.277Z,993.51
2019-01-29T02:06:03.262Z,993.55
2019-01-29T02:07:03.251Z,993.53
2019-01-29T02:08:03.239Z,993.56
2019-01-29T02:09:03.230Z,993.53
2019-01-29T02:10:03.216Z,993.55
2019-01-29T02:11:03.207Z,993.59
2019-01-29T02:12:03.200Z,993.66
2019-01-29T02:13:03.185Z,993.68
2019-01-29T02:14:03.171Z,993.62
2019-01-29T02:15:03.170Z,993.72
2019-01-29T02:16:03.152Z,993.71
2019-01-29T02:17:03.141Z,993.69
2019-01-29T02:18:03.132Z,993.78
2019-01-29T02:19:03.119Z,993.84
2019-01-29T02:20:03.112Z,993.87
2019-01-29T02:21:03.096Z,993.88
2019-01-29T02:22:03.086Z,993.89
2019-01-29T02:23:08.235Z,993.93
2019-01-29T02:24:03.064Z,993.96
2019-01-29T02:25:03.052Z,993.98
2019-01-29T02:26:03.041Z,993.93
2019-01-29T02:27:03.095Z,993.97
2019-01-29T02:28:03.019Z,993.98
2019-01-29T02:29:03.010Z,994.00
2019-01-29T02:30:02.997Z,994.03
2019-01-29T02:31:02.985Z,994.06
2019-01-29T02:32:02.975Z,994.08
2019-01-29T02:33:02.963Z,994.14
2019-01-29T02:34:02.954Z,994.12
2019-01-29T02:35:02.941Z,994.21
2019-01-29T02:36:02.933Z,994.18
2019-01-29T02:37:02.920Z,994.19
2019-01-29T02:38:02.909Z,994.23
2019-01-29T02:39:02.897Z,994.24
2019-01-29T02:40:02.887Z,994.26
2019-01-29T02:41:02.878Z,994.28
2019-01-29T02:42:02.864Z,994.20
2019-01-29T02:43:02.851Z,994.33
2019-01-29T02:44:02.847Z,994.32
2019-01-29T02:45:02.830Z,994.29
2019-01-29T02:46:02.821Z,994.34
2019-01-29T02:47:02.820Z,994.38
2019-01-29T02:48:02.798Z,994.39
2019-01-29T02:49:02.786Z,994.37
2019-01-29T02:50:02.777Z,994.37
2019-01-29T02:51:02.765Z,994.36
2019-01-29T02:52:02.755Z,994.37
2019-01-29T02:53:02.742Z,994.42
2019-01-29T02:54:02.733Z,994.44
2019-01-29T02:55:02.723Z,994.43
2019-01-29T02:56:02.707Z,994.47
2019-01-29T02:57:02.698Z,994.50
2019-01-29T02:58:02.684Z,994.46
2019-01-29T02:59:02.674Z,994.46
2019-01-29T03:00:02.663Z,994.46
2019-01-29T03:01:02.653Z,994.46
2019-01-29T03:02:02.640Z,994.48
2019-01-29T03:03:02.629Z,994.51
2019-01-29T03:04:02.617Z,994.54
2019-01-29T03:05:02.609Z,994.54
2019-01-29T03:06:02.598Z,994.59
2019-01-29T03:07:02.588Z,994.63
2019-01-29T03:08:02.574Z,994.63
2019-01-29T03:09:02.560Z,994.64
2019-01-29T03:10:02.552Z,994.68
2019-01-29T03:11:02.562Z,994.77
2019-01-29T03:12:02.530Z,994.70
2019-01-29T03:13:02.517Z,994.78
2019-01-29T03:14:02.503Z,994.79
2019-01-29T03:15:02.493Z,994.82
2019-01-29T03:16:02.481Z,994.83
2019-01-29T03:17:02.481Z,994.82
2019-01-29T03:18:02.464Z,994.92
2019-01-29T03:19:02.447Z,994.89
2019-01-29T03:20:02.436Z,994.90
2019-01-29T03:21:02.438Z,994.91
2019-01-29T03:22:02.416Z,994.92
2019-01-29T03:23:02.404Z,994.95
2019-01-29T03:24:02.392Z,994.96
2019-01-29T03:25:02.379Z,994.96
2019-01-29T03:26:02.375Z,994.96
2019-01-29T03:27:02.357Z,995.03
2019-01-29T03:28:02.347Z,995.01
2019-01-29T03:29:02.338Z,995.04
2019-01-29T03:30:02.329Z,994.99
2019-01-29T03:31:02.330Z,995.03
2019-01-29T03:32:02.300Z,995.02
2019-01-29T03:33:02.293Z,995.11
2019-01-29T03:34:02.280Z,995.15
2019-01-29T03:35:02.413Z,995.18
2019-01-29T03:36:02.255Z,995.19
2019-01-29T03:37:02.281Z,995.19
2019-01-29T03:38:02.232Z,995.22
2019-01-29T03:39:02.217Z,995.23
2019-01-29T03:40:02.222Z,995.23
2019-01-29T03:41:02.200Z,995.25
2019-01-29T03:42:02.183Z,995.19
2019-01-29T03:43:02.178Z,995.25
2019-01-29T03:44:02.160Z,995.29
2019-01-29T03:45:02.150Z,995.37
2019-01-29T03:46:02.138Z,995.34
2019-01-29T03:47:02.131Z,995.39
2019-01-29T03:48:02.116Z,995.42
2019-01-29T03:49:02.105Z,995.41
2019-01-29T03:50:02.090Z,995.49
2019-01-29T03:51:02.093Z,995.42
2019-01-29T03:52:02.067Z,995.51
2019-01-29T03:53:02.050Z,995.51
2019-01-29T03:54:02.045Z,995.55
2019-01-29T03:55:02.031Z,995.50
2019-01-29T03:56:02.025Z,995.55
2019-01-29T03:57:02.009Z,995.53
2019-01-29T03:58:01.998Z,995.56
2019-01-29T03:59:01.986Z,995.54
2019-01-29T04:00:01.978Z,995.55
2019-01-29T04:01:01.978Z,995.61
2019-01-29T04:02:01.951Z,995.63
2019-01-29T04:03:01.939Z,995.61
2019-01-29T04:04:01.931Z,995.63
2019-01-29T04:05:01.924Z,995.64
2019-01-29T04:06:01.905Z,995.63
2019-01-29T04:07:01.892Z,995.64
2019-01-29T04:08:01.881Z,995.71
2019-01-29T04:09:01.876Z,995.73
2019-01-29T04:10:01.858Z,995.71
2019-01-29T04:11:01.843Z,995.66
2019-01-29T04:12:01.835Z,995.77
2019-01-29T04:13:01.826Z,995.77
2019-01-29T04:14:01.810Z,995.77
2019-01-29T04:15:01.798Z,995.81
2019-01-29T04:16:01.786Z,995.77
2019-01-29T04:17:01.778Z,995.83
2019-01-29T04:18:01.769Z,995.81
2019-01-29T04:19:01.756Z,995.86
2019-01-29T04:20:01.740Z,995.86
2019-01-29T04:21:01.729Z,995.86
2019-01-29T04:22:01.719Z,995.89
2019-01-29T04:23:01.721Z,995.87
2019-01-29T04:24:01.694Z,995.95
2019-01-29T04:25:01.693Z,996.00
2019-01-29T04:26:01.678Z,995.96
2019-01-29T04:27:01.657Z,995.96
2019-01-29T04:28:01.646Z,995.96
2019-01-29T04:29:01.635Z,996.01
2019-01-29T04:30:01.624Z,995.98
2019-01-29T04:31:01.612Z,996.05
2019-01-29T04:32:01.618Z,996.05
2019-01-29T04:33:01.590Z,996.11
2019-01-29T04:34:01.574Z,996.10
2019-01-29T04:35:01.566Z,996.15
2019-01-29T04:36:01.551Z,996.12
2019-01-29T04:37:01.542Z,996.15
2019-01-29T04:38:01.529Z,996.14
2019-01-29T04:39:01.515Z,996.12
2019-01-29T04:40:01.507Z,996.18
2019-01-29T04:41:01.497Z,996.15
2019-01-29T04:42:01.485Z,996.19
2019-01-29T04:43:01.470Z,996.19
2019-01-29T04:44:01.460Z,996.25
2019-01-29T04:45:01.445Z,996.24
2019-01-29T04:46:01.434Z,996.26
2019-01-29T04:47:01.423Z,996.24
2019-01-29T04:48:01.411Z,996.24
2019-01-29T04:49:01.400Z,996.29
2019-01-29T04:50:01.394Z,996.32
2019-01-29T04:51:01.373Z,996.28
2019-01-29T04:52:01.364Z,996.36
2019-01-29T04:53:01.353Z,996.32
2019-01-29T04:54:01.344Z,996.37
2019-01-29T04:55:01.329Z,996.33
2019-01-29T04:56:01.317Z,996.40
2019-01-29T04:57:01.304Z,996.43
2019-01-29T04:58:01.292Z,996.40
2019-01-29T04:59:01.283Z,996.43
2019-01-29T05:00:01.274Z,996.43
2019-01-29T05:01:01.261Z,996.46
2019-01-29T05:02:01.247Z,996.43
2019-01-29T05:03:01.239Z,996.41
2019-01-29T05:04:01.222Z,996.47
2019-01-29T05:05:01.217Z,996.47
2019-01-29T05:06:01.201Z,996.49
2019-01-29T05:07:01.190Z,996.51
2019-01-29T05:08:01.181Z,996.49
2019-01-29T05:09:01.166Z,996.51
2019-01-29T05:10:01.153Z,996.52
2019-01-29T05:11:01.152Z,996.49
2019-01-29T05:12:01.134Z,996.48
2019-01-29T05:13:01.117Z,996.48
2019-01-29T05:14:01.108Z,996.49
2019-01-29T05:15:01.103Z,996.52
2019-01-29T05:16:01.087Z,996.56
2019-01-29T05:17:01.077Z,996.57
2019-01-29T05:18:01.065Z,996.59
2019-01-29T05:19:01.042Z,996.57
2019-01-29T05:20:01.038Z,996.59
2019-01-29T05:21:01.022Z,996.65
2019-01-29T05:22:01.012Z,996.61
2019-01-29T05:23:01.000Z,996.67
2019-01-29T05:24:06.592Z,996.69
2019-01-29T05:25:01.074Z,996.71
2019-01-29T05:26:00.967Z,996.72
2019-01-29T05:27:00.951Z,996.77
2019-01-29T05:28:00.943Z,996.76
2019-01-29T05:29:00.928Z,996.83
2019-01-29T05:30:00.922Z,996.80
2019-01-29T05:31:00.905Z,996.84
2019-01-29T05:32:00.894Z,996.82
2019-01-29T05:33:00.882Z,996.87
2019-01-29T05:34:00.868Z,996.86
2019-01-29T05:35:00.860Z,996.83
2019-01-29T05:36:00.844Z,996.90
2019-01-29T05:37:00.834Z,996.89
2019-01-29T05:38:00.840Z,996.88
2019-01-29T05:39:00.815Z,996.88
2019-01-29T05:40:00.799Z,996.88
2019-01-29T05:41:00.785Z,996.92
2019-01-29T05:42:00.777Z,996.93
2019-01-29T05:43:00.762Z,996.98
2019-01-29T05:44:00.764Z,996.98
2019-01-29T05:45:00.740Z,997.03
2019-01-29T05:46:00.726Z,997.02
2019-01-29T05:47:00.717Z,997.03
2019-01-29T05:48:00.700Z,997.07
2019-01-29T05:49:00.690Z,997.09
2019-01-29T05:50:00.678Z,997.12
2019-01-29T05:51:00.672Z,997.09
2019-01-29T05:52:00.652Z,997.11
2019-01-29T05:53:00.640Z,997.18
2019-01-29T05:54:00.628Z,997.13
2019-01-29T05:55:00.620Z,997.14
2019-01-29T05:56:00.609Z,997.19
2019-01-29T05:57:00.589Z,997.22
2019-01-29T05:58:00.581Z,997.23
2019-01-29T05:59:00.567Z,997.24
2019-01-29T06:00:00.555Z,997.24
2019-01-29T06:01:00.545Z,997.29
2019-01-29T06:02:00.535Z,997.30
2019-01-29T06:03:00.518Z,997.27
2019-01-29T06:04:00.506Z,997.29
2019-01-29T06:05:00.494Z,997.28
2019-01-29T06:06:00.483Z,997.31
2019-01-29T06:07:00.468Z,997.33
2019-01-29T06:08:00.458Z,997.29
2019-01-29T06:09:00.448Z,997.35
2019-01-29T06:10:00.431Z,997.36
2019-01-29T06:11:00.421Z,997.40
2019-01-29T06:12:00.481Z,997.40
2019-01-29T06:13:00.403Z,997.40
2019-01-29T06:14:00.385Z,997.43
2019-01-29T06:15:00.378Z,997.46
2019-01-29T06:16:00.361Z,997.49
2019-01-29T06:17:00.346Z,997.50
2019-01-29T06:18:00.333Z,997.53
2019-01-29T06:19:00.322Z,997.56
2019-01-29T06:20:00.310Z,997.56
2019-01-29T06:21:00.297Z,997.59
2019-01-29T06:22:00.287Z,997.61
2019-01-29T06:23:00.273Z,997.60
2019-01-29T06:24:00.265Z,997.63
2019-01-29T06:25:00.258Z,997.62
2019-01-29T06:26:00.238Z,997.63
2019-01-29T06:27:00.218Z,997.66
2019-01-29T06:28:00.209Z,997.68
2019-01-29T06:29:00.198Z,997.73
2019-01-29T06:30:00.194Z,997.79
2019-01-29T06:31:00.174Z,997.79
2019-01-29T06:32:00.160Z,997.78
2019-01-29T06:33:00.148Z,997.80
2019-01-29T06:34:00.138Z,997.81
2019-01-29T06:35:00.327Z,997.87
2019-01-29T06:36:00.111Z,997.85
2019-01-29T06:37:00.096Z,997.93
2019-01-29T06:38:00.086Z,997.94
2019-01-29T06:39:00.071Z,997.91
2019-01-29T06:40:00.066Z,997.95
2019-01-29T06:41:00.047Z,998.00
2019-01-29T06:42:00.034Z,998.03
2019-01-29T06:43:00.024Z,998.01
2019-01-29T06:44:00.010Z,998.10
2019-01-29T06:45:00.000Z,998.11
2019-01-29T06:45:59.985Z,998.17
2019-01-29T06:46:59.970Z,998.14
2019-01-29T06:47:59.960Z,998.17
2019-01-29T06:48:59.947Z,998.14
2019-01-29T06:49:59.936Z,998.17
2019-01-29T06:50:59.921Z,998.20
2019-01-29T06:51:59.912Z,998.17
2019-01-29T06:52:59.895Z,998.22
2019-01-29T06:53:59.887Z,998.23
2019-01-29T06:54:59.871Z,998.24
2019-01-29T06:55:59.857Z,998.24
2019-01-29T06:56:59.848Z,998.26
2019-01-29T06:57:59.835Z,998.30
2019-01-29T06:58:59.821Z,998.29
2019-01-29T06:59:59.807Z,998.33
2019-01-29T07:00:59.794Z,998.36
2019-01-29T07:01:59.782Z,998.38
2019-01-29T07:02:59.775Z,998.35
2019-01-29T07:03:59.808Z,998.38
2019-01-29T07:04:59.746Z,998.40
2019-01-29T07:05:59.732Z,998.41
2019-01-29T07:06:59.720Z,998.44
2019-01-29T07:07:59.707Z,998.51
2019-01-29T07:08:59.693Z,998.48
2019-01-29T07:09:59.682Z,998.54
2019-01-29T07:10:59.681Z,998.50
2019-01-29T07:11:59.660Z,998.49
2019-01-29T07:12:59.651Z,998.54
2019-01-29T07:13:59.635Z,998.52
2019-01-29T07:14:59.619Z,998.58
2019-01-29T07:15:59.610Z,998.61
2019-01-29T07:16:59.595Z,998.56
2019-01-29T07:17:59.575Z,998.59
2019-01-29T07:18:59.567Z,998.59
2019-01-29T07:19:59.561Z,998.57
2019-01-29T07:20:59.541Z,998.59
2019-01-29T07:21:59.536Z,998.61
2019-01-29T07:22:59.518Z,998.59
2019-01-29T07:23:59.507Z,998.62
2019-01-29T07:24:59.493Z,998.61
2019-01-29T07:25:59.483Z,998.64
2019-01-29T07:26:59.468Z,998.64
2019-01-29T07:27:59.457Z,998.65
2019-01-29T07:28:59.445Z,998.67
2019-01-29T07:29:59.432Z,998.63
2019-01-29T07:30:59.420Z,998.66
2019-01-29T07:31:59.412Z,998.66
2019-01-29T07:32:59.395Z,998.69
2019-01-29T07:33:59.383Z,998.71
2019-01-29T07:34:59.371Z,998.69
2019-01-29T07:35:59.359Z,998.71
2019-01-29T07:36:59.354Z,998.66
2019-01-29T07:37:59.336Z,998.65
2019-01-29T07:38:59.320Z,998.64
2019-01-29T07:39:59.315Z,998.63
2019-01-29T07:40:59.305Z,998.64
2019-01-29T07:41:59.287Z,998.74
2019-01-29T07:42:59.268Z,998.68
2019-01-29T07:43:59.259Z,998.76
2019-01-29T07:44:59.251Z,998.77
2019-01-29T07:45:59.249Z,998.77
2019-01-29T07:46:59.224Z,998.83
2019-01-29T07:47:59.214Z,998.80
2019-01-29T07:48:59.202Z,998.82
2019-01-29T07:49:59.197Z,998.82
2019-01-29T07:50:59.174Z,998.80
2019-01-29T07:51:59.166Z,998.83
2019-01-29T07:52:59.150Z,998.85
2019-01-29T07:53:59.140Z,998.87
2019-01-29T07:54:59.126Z,998.90
2019-01-29T07:55:59.115Z,998.83
2019-01-29T07:56:59.104Z,998.84
2019-01-29T07:57:59.090Z,998.85
2019-01-29T07:58:59.078Z,998.89
2019-01-29T07:59:59.066Z,998.92
2019-01-29T08:00:59.054Z,998.91
2019-01-29T08:01:59.045Z,998.88
2019-01-29T08:02:59.030Z,998.89
2019-01-29T08:03:59.018Z,998.92
2019-01-29T08:04:59.007Z,998.87
2019-01-29T08:05:58.997Z,998.87
2019-01-29T08:06:58.983Z,998.90
2019-01-29T08:07:58.973Z,998.87
2019-01-29T08:08:58.960Z,998.94
2019-01-29T08:09:58.951Z,998.94
2019-01-29T08:10:58.935Z,998.95
2019-01-29T08:11:58.924Z,998.97
2019-01-29T08:12:58.912Z,998.96
2019-01-29T08:13:58.899Z,999.00
2019-01-29T08:14:58.887Z,998.99
2019-01-29T08:15:58.953Z,998.95
2019-01-29T08:16:58.869Z,998.99
2019-01-29T08:17:58.852Z,998.99
2019-01-29T08:18:58.848Z,999.04
2019-01-29T08:19:58.829Z,999.03
2019-01-29T08:20:58.817Z,999.03
2019-01-29T08:21:58.807Z,999.07
2019-01-29T08:22:58.791Z,999.12
2019-01-29T08:23:58.780Z,999.13
2019-01-29T08:25:01.736Z,999.11
2019-01-29T08:25:58.758Z,999.16
2019-01-29T08:26:58.747Z,999.14
2019-01-29T08:27:58.733Z,999.15
2019-01-29T08:28:58.723Z,999.20
2019-01-29T08:29:58.713Z,999.23
2019-01-29T08:30:58.696Z,999.21
2019-01-29T08:31:58.687Z,999.24
2019-01-29T08:32:58.677Z,999.23
2019-01-29T08:33:58.664Z,999.23
2019-01-29T08:34:58.654Z,999.27
2019-01-29T08:35:58.640Z,999.29
2019-01-29T08:36:58.630Z,999.31
2019-01-29T08:37:58.617Z,999.30
2019-01-29T08:38:58.607Z,999.32
2019-01-29T08:39:58.597Z,999.26
2019-01-29T08:40:58.584Z,999.29
2019-01-29T08:41:58.571Z,999.32
2019-01-29T08:42:58.628Z,999.33
2019-01-29T08:43:58.546Z,999.35
2019-01-29T08:44:58.529Z,999.38
2019-01-29T08:45:59.581Z,999.36
2019-01-29T08:46:58.514Z,999.34
2019-01-29T08:47:58.505Z,999.39
2019-01-29T08:48:58.489Z,999.40
2019-01-29T08:49:58.479Z,999.37
2019-01-29T08:50:58.467Z,999.44
2019-01-29T08:51:58.457Z,999.44
2019-01-29T08:52:58.447Z,999.44
2019-01-29T08:53:58.434Z,999.44
2019-01-29T08:54:58.426Z,999.47
2019-01-29T08:55:58.410Z,999.46
2019-01-29T08:56:58.399Z,999.49
2019-01-29T08:57:58.387Z,999.49
2019-01-29T08:58:58.376Z,999.54
2019-01-29T08:59:58.363Z,999.51
2019-01-29T09:00:58.355Z,999.52
2019-01-29T09:01:58.344Z,999.46
2019-01-29T09:02:58.330Z,999.51
2019-01-29T09:03:58.320Z,999.51
2019-01-29T09:04:58.310Z,999.49
2019-01-29T09:05:58.303Z,999.53
2019-01-29T09:06:58.288Z,999.49
2019-01-29T09:07:58.269Z,999.52
2019-01-29T09:08:58.263Z,999.52
2019-01-29T09:09:58.253Z,999.48
2019-01-29T09:10:58.243Z,999.50
2019-01-29T09:11:58.232Z,999.51
2019-01-29T09:12:58.218Z,999.55
2019-01-29T09:13:58.208Z,999.54
2019-01-29T09:14:58.197Z,999.51
2019-01-29T09:15:58.184Z,999.56
2019-01-29T09:16:58.172Z,999.56
2019-01-29T09:17:58.162Z,999.52
2019-01-29T09:18:58.149Z,999.51
2019-01-29T09:19:58.141Z,999.52
2019-01-29T09:20:58.129Z,999.57
2019-01-29T09:21:58.119Z,999.54
2019-01-29T09:22:58.108Z,999.53
2019-01-29T09:23:58.095Z,999.56
2019-01-29T09:24:58.083Z,999.56
2019-01-29T09:25:58.072Z,999.55
2019-01-29T09:26:58.062Z,999.57
2019-01-29T09:27:58.049Z,999.52
2019-01-29T09:28:58.041Z,999.56
2019-01-29T09:29:58.029Z,999.63
2019-01-29T09:30:58.017Z,999.63
2019-01-29T09:31:58.007Z,999.62
2019-01-29T09:32:58.001Z,999.67
2019-01-29T09:33:57.987Z,999.72
2019-01-29T09:34:57.973Z,999.75
2019-01-29T09:35:57.963Z,999.74
2019-01-29T09:36:57.957Z,999.72
2019-01-29T09:37:57.942Z,999.77
2019-01-29T09:38:57.931Z,999.80
2019-01-29T09:39:57.919Z,999.79
2019-01-29T09:40:57.910Z,999.80
2019-01-29T09:41:57.900Z,999.81
2019-01-29T09:42:57.887Z,999.85
2019-01-29T09:43:57.878Z,999.85
2019-01-29T09:44:57.866Z,999.86
2019-01-29T09:45:57.856Z,999.86
2019-01-29T09:46:57.843Z,999.87
2019-01-29T09:47:57.833Z,999.88
2019-01-29T09:48:57.824Z,999.91
2019-01-29T09:49:57.818Z,999.89
2019-01-29T09:50:57.801Z,999.85
2019-01-29T09:51:57.791Z,999.88
2019-01-29T09:52:57.783Z,999.92
2019-01-29T09:53:57.769Z,999.92
2019-01-29T09:54:57.759Z,999.86
2019-01-29T09:55:57.749Z,999.86
2019-01-29T09:56:57.731Z,999.87
2019-01-29T09:57:57.733Z,999.86
2019-01-29T09:58:57.716Z,999.90
2019-01-29T09:59:57.706Z,999.90
2019-01-29T10:00:57.700Z,999.92
2019-01-29T10:01:57.689Z,999.90
2019-01-29T10:02:57.674Z,999.94
2019-01-29T10:03:57.664Z,999.96
2019-01-29T10:04:57.666Z,999.94
2019-01-29T10:05:57.636Z,999.96
2019-01-29T10:06:57.632Z,1000.01
2019-01-29T10:07:57.627Z,999.98
2019-01-29T10:08:57.611Z,999.95
2019-01-29T10:09:57.605Z,999.98
2019-01-29T10:10:57.592Z,999.99
2019-01-29T10:11:57.580Z,999.98
2019-01-29T10:12:57.568Z,999.99
2019-01-29T10:13:57.560Z,999.97
2019-01-29T10:14:57.548Z,999.99
2019-01-29T10:15:57.536Z,1000.03
2019-01-29T10:16:57.527Z,1000.01
2019-01-29T10:17:57.517Z,1000.01
2019-01-29T10:18:57.507Z,999.98
2019-01-29T10:20:02.472Z,1000.01
2019-01-29T10:20:57.487Z,1000.01
2019-01-29T10:21:57.476Z,1000.00
2019-01-29T10:22:57.465Z,1000.02
2019-01-29T10:23:57.455Z,1000.02
2019-01-29T10:24:57.444Z,1000.04
2019-01-29T10:25:57.434Z,1000.03
2019-01-29T10:26:57.424Z,1000.03
2019-01-29T10:27:57.413Z,1000.00
2019-01-29T10:28:57.403Z,999.97
2019-01-29T10:29:57.395Z,1000.02
2019-01-29T10:30:57.381Z,999.99
2019-01-29T10:31:57.372Z,999.97
2019-01-29T10:32:57.361Z,999.98
2019-01-29T10:33:57.353Z,999.98
2019-01-29T10:34:57.340Z,1000.00
2019-01-29T10:35:57.329Z,999.97
2019-01-29T10:36:57.424Z,999.99
2019-01-29T10:37:57.309Z,1000.01
2019-01-29T10:38:57.302Z,999.98
2019-01-29T10:39:57.300Z,999.96
2019-01-29T10:40:57.281Z,999.95
2019-01-29T10:41:57.266Z,999.97
2019-01-29T10:42:57.257Z,1000.01
2019-01-29T10:43:57.245Z,999.96
2019-01-29T10:44:57.239Z,999.96
2019-01-29T10:45:57.227Z,999.98
2019-01-29T10:46:57.213Z,999.98
2019-01-29T10:47:57.203Z,1000.02
2019-01-29T10:48:57.193Z,999.97
2019-01-29T10:49:57.184Z,1000.01
2019-01-29T10:50:57.176Z,1000.00
2019-01-29T10:51:57.164Z,1000.00
2019-01-29T10:52:57.152Z,1000.00
2019-01-29T10:53:57.145Z,999.99
2019-01-29T10:54:58.074Z,999.98
2019-01-29T10:55:57.122Z,999.99
2019-01-29T10:56:57.110Z,999.98
2019-01-29T10:57:57.099Z,999.97
2019-01-29T10:58:57.089Z,999.98
2019-01-29T10:59:57.081Z,999.95
2019-01-29T11:00:57.077Z,999.96
2019-01-29T11:01:57.059Z,1000.00
2019-01-29T11:02:57.048Z,999.96
2019-01-29T11:03:57.038Z,999.98
2019-01-29T11:04:57.390Z,999.96
2019-01-29T11:05:57.092Z,999.97
2019-01-29T11:06:57.006Z,999.94
2019-01-29T11:07:57.000Z,999.95
2019-01-29T11:08:56.986Z,999.96
2019-01-29T11:09:56.974Z,1000.00
2019-01-29T11:10:56.964Z,999.98
2019-01-29T11:11:56.952Z,999.98
2019-01-29T11:12:56.944Z,1000.00
2019-01-29T11:13:56.932Z,999.99
2019-01-29T11:14:56.921Z,999.98
2019-01-29T11:15:56.913Z,1000.02
2019-01-29T11:16:56.904Z,1000.00
2019-01-29T11:17:56.893Z,999.99
2019-01-29T11:19:03.149Z,999.95
2019-01-29T11:19:56.870Z,999.99
2019-01-29T11:20:56.862Z,999.98
2019-01-29T11:21:56.852Z,999.96
2019-01-29T11:22:56.842Z,999.96
2019-01-29T11:23:56.832Z,999.97
2019-01-29T11:24:56.827Z,999.95
2019-01-29T11:25:56.813Z,999.96
2019-01-29T11:26:56.799Z,999.96
2019-01-29T11:27:56.791Z,1000.00
2019-01-29T11:28:56.781Z,1000.01
2019-01-29T11:29:56.773Z,1000.01
2019-01-29T11:30:56.758Z,999.99
2019-01-29T11:31:56.747Z,1000.00
2019-01-29T11:32:56.741Z,1000.00
2019-01-29T11:33:56.729Z,999.98
2019-01-29T11:34:56.719Z,1000.00
2019-01-29T11:35:56.709Z,999.97
2019-01-29T11:36:56.700Z,999.97
2019-01-29T11:37:56.687Z,999.99
2019-01-29T11:38:56.676Z,999.98
2019-01-29T11:39:56.667Z,1000.01
2019-01-29T11:40:56.662Z,1000.02
2019-01-29T11:41:56.647Z,999.99
2019-01-29T11:42:56.635Z,1000.04
2019-01-29T11:43:56.626Z,1000.02
2019-01-29T11:44:56.617Z,1000.03
2019-01-29T11:45:56.607Z,1000.08
2019-01-29T11:46:56.595Z,1000.06
2019-01-29T11:47:56.588Z,1000.08
2019-01-29T11:48:56.576Z,1000.05
2019-01-29T11:49:56.565Z,1000.08
2019-01-29T11:50:56.555Z,1000.12
2019-01-29T11:51:56.546Z,1000.10
2019-01-29T11:52:56.538Z,1000.09
2019-01-29T11:53:56.524Z,1000.09
2019-01-29T11:54:56.515Z,1000.11
2019-01-29T11:56:04.057Z,1000.11
2019-01-29T11:56:56.493Z,1000.17
2019-01-29T11:57:56.488Z,1000.18
2019-01-29T11:58:56.475Z,1000.15
2019-01-29T11:59:56.465Z,1000.16
2019-01-29T12:00:56.456Z,1000.15
2019-01-29T12:01:56.445Z,1000.17
2019-01-29T12:02:56.434Z,1000.17
2019-01-29T12:03:56.427Z,1000.16
2019-01-29T12:04:56.415Z,1000.17
2019-01-29T12:05:56.406Z,1000.17
2019-01-29T12:06:56.395Z,1000.16
2019-01-29T12:07:56.385Z,1000.15
2019-01-29T12:08:56.377Z,1000.15
2019-01-29T12:09:56.599Z,1000.16
2019-01-29T12:10:56.355Z,1000.17
2019-01-29T12:11:56.346Z,1000.14
2019-01-29T12:12:56.346Z,1000.12
2019-01-29T12:13:56.329Z,1000.11
2019-01-29T12:14:56.321Z,1000.09
2019-01-29T12:15:56.306Z,1000.14
2019-01-29T12:16:56.297Z,1000.14
2019-01-29T12:17:56.287Z,1000.16
2019-01-29T12:18:56.276Z,1000.13
2019-01-29T12:19:56.269Z,1000.11
2019-01-29T12:20:56.258Z,1000.14
2019-01-29T12:21:56.250Z,1000.12
2019-01-29T12:22:56.243Z,1000.19
2019-01-29T12:23:56.231Z,1000.11
2019-01-29T12:24:56.221Z,1000.15
2019-01-29T12:25:56.212Z,1000.08